createdAt,value
2018-03-26T00:01:45.949Z,97124.38
2018-03-26T00:04:12.229Z,97125.30
2018-03-26T00:06:38.524Z,97130.72
2018-03-26T00:09:04.832Z,97134.55
2018-03-26T00:11:31.097Z,97131.89
2018-03-26T00:13:57.391Z,97131.38
2018-03-26T00:16:23.649Z,97129.47
2018-03-26T00:18:49.931Z,97121.55
2018-03-26T00:21:16.218Z,97122.02
2018-03-26T00:23:42.466Z,97121.86
2018-03-26T00:26:08.722Z,97122.31
2018-03-26T00:28:34.999Z,97116.73
2018-03-26T00:31:01.272Z,97120.92
2018-03-26T00:33:27.558Z,97123.95
2018-03-26T00:35:53.873Z,97125.70
2018-03-26T00:38:20.164Z,97129.45
2018-03-26T00:40:46.425Z,97126.63
2018-03-26T00:43:12.661Z,97124.61
2018-03-26T00:45:38.905Z,97128.72
2018-03-26T00:48:05.184Z,97131.39
2018-03-26T00:50:31.457Z,97122.45
2018-03-26T00:52:57.704Z,97133.00
2018-03-26T00:55:23.938Z,97127.47
2018-03-26T00:57:50.180Z,97130.86
2018-03-26T01:00:16.501Z,97132.44
2018-03-26T01:02:42.888Z,97132.92
2018-03-26T01:05:09.132Z,97134.98
2018-03-26T01:07:35.436Z,97133.78
2018-03-26T01:10:01.717Z,97135.38
2018-03-26T01:12:27.973Z,97138.29
2018-03-26T01:14:54.241Z,97136.95
2018-03-26T01:17:20.473Z,97134.86
2018-03-26T01:19:46.701Z,97141.11
2018-03-26T01:22:13.002Z,97140.73
2018-03-26T01:24:39.233Z,97137.52
2018-03-26T01:27:05.492Z,97140.19
2018-03-26T01:29:31.764Z,97132.19
2018-03-26T01:31:58.010Z,97130.13
2018-03-26T01:34:24.319Z,97136.39
2018-03-26T01:36:50.592Z,97139.15
2018-03-26T01:39:16.900Z,97138.45
2018-03-26T01:41:43.196Z,97145.19
2018-03-26T01:44:09.421Z,97140.66
2018-03-26T01:46:35.674Z,97147.61
2018-03-26T01:49:01.945Z,97151.21
2018-03-26T01:51:28.246Z,97148.91
2018-03-26T01:53:54.483Z,97144.25
2018-03-26T01:56:20.720Z,97146.01
2018-03-26T01:58:46.977Z,97142.97
2018-03-26T02:01:13.206Z,97145.85
2018-03-26T02:03:39.514Z,97151.13
2018-03-26T02:06:05.812Z,97150.29
2018-03-26T02:08:32.065Z,97150.92
2018-03-26T02:10:58.332Z,97153.52
2018-03-26T02:13:24.609Z,97158.58
2018-03-26T02:15:50.889Z,97156.89
2018-03-26T02:18:17.180Z,97151.00
2018-03-26T02:20:43.407Z,97160.41
2018-03-26T02:23:09.677Z,97153.22
2018-03-26T02:25:35.933Z,97152.35
2018-03-26T02:28:02.229Z,97160.39
2018-03-26T02:30:28.502Z,97159.31
2018-03-26T02:32:54.741Z,97152.05
2018-03-26T02:35:20.982Z,97156.25
2018-03-26T02:37:47.288Z,97151.36
2018-03-26T02:40:13.537Z,97149.34
2018-03-26T02:42:39.787Z,97148.14
2018-03-26T02:45:06.050Z,97154.46
2018-03-26T02:47:32.294Z,97152.71
2018-03-26T02:49:58.533Z,97152.32
2018-03-26T02:52:24.812Z,97153.55
2018-03-26T02:54:51.053Z,97160.36
2018-03-26T02:57:18.385Z,97155.74
2018-03-26T02:59:44.653Z,97153.83
2018-03-26T03:02:10.898Z,97163.37
2018-03-26T03:04:37.154Z,97162.91
2018-03-26T03:07:03.436Z,97162.89
2018-03-26T03:09:29.677Z,97165.64
2018-03-26T03:11:55.929Z,97159.52
2018-03-26T03:14:22.188Z,97164.37
2018-03-26T03:16:48.417Z,97166.43
2018-03-26T03:19:14.668Z,97170.72
2018-03-26T03:21:40.944Z,97173.47
2018-03-26T03:24:07.177Z,97175.38
2018-03-26T03:26:33.402Z,97170.92
2018-03-26T03:28:59.692Z,97177.95
2018-03-26T03:31:25.949Z,97174.39
2018-03-26T03:33:52.200Z,97173.90
2018-03-26T03:36:18.469Z,97177.95
2018-03-26T03:38:44.717Z,97178.02
2018-03-26T03:41:10.964Z,97178.47
2018-03-26T03:43:37.249Z,97179.16
2018-03-26T03:46:03.519Z,97175.41
2018-03-26T03:48:29.944Z,97185.44
2018-03-26T03:50:56.328Z,97189.64
2018-03-26T03:53:22.599Z,97181.91
2018-03-26T03:55:49.027Z,97186.41
2018-03-26T03:58:15.360Z,97185.81
2018-03-26T04:00:41.632Z,97190.00
2018-03-26T04:03:07.889Z,97191.61
2018-03-26T04:05:34.160Z,97191.83
2018-03-26T04:08:00.437Z,97190.79
2018-03-26T04:10:26.716Z,97187.27
2018-03-26T04:12:54.109Z,97187.04
2018-03-26T04:15:20.384Z,97189.84
2018-03-26T04:17:46.620Z,97186.41
2018-03-26T04:20:12.949Z,97188.55
2018-03-26T04:22:39.209Z,97191.91
2018-03-26T04:25:05.479Z,97189.46
2018-03-26T04:27:31.777Z,97189.69
2018-03-26T04:29:58.049Z,97194.31
2018-03-26T04:32:24.302Z,97199.46
2018-03-26T04:34:50.633Z,97200.85
2018-03-26T04:37:16.953Z,97207.53
2018-03-26T04:39:43.201Z,97200.22
2018-03-26T04:42:09.484Z,97211.43
2018-03-26T04:44:35.764Z,97209.95
2018-03-26T04:47:02.038Z,97211.55
2018-03-26T04:49:28.310Z,97215.18
2018-03-26T04:51:54.608Z,97208.05
2018-03-26T04:54:20.889Z,97216.33
2018-03-26T04:56:47.149Z,97223.28
2018-03-26T04:59:13.414Z,97217.66
2018-03-26T05:01:39.653Z,97222.83
2018-03-26T05:04:07.049Z,97221.96
2018-03-26T05:06:33.285Z,97226.80
2018-03-26T05:08:59.596Z,97226.63
2018-03-26T05:11:25.867Z,97228.22
2018-03-26T05:13:52.101Z,97228.45
2018-03-26T05:16:18.328Z,97229.04
2018-03-26T05:18:44.593Z,97228.64
2018-03-26T05:21:10.837Z,97234.94
2018-03-26T05:23:37.090Z,97240.98
2018-03-26T05:26:03.477Z,97237.89
2018-03-26T05:28:29.711Z,97240.13
2018-03-26T05:30:55.970Z,97241.37
2018-03-26T05:33:22.238Z,97242.80
2018-03-26T05:35:48.476Z,97243.81
2018-03-26T05:38:14.712Z,97246.22
2018-03-26T05:40:40.980Z,97236.13
2018-03-26T05:43:07.211Z,97242.63
2018-03-26T05:45:33.464Z,97246.42
2018-03-26T05:47:59.797Z,97244.17
2018-03-26T05:50:26.054Z,97250.45
2018-03-26T05:52:52.284Z,97251.63
2018-03-26T05:55:18.558Z,97246.06
2018-03-26T05:57:44.812Z,97260.86
2018-03-26T06:00:11.078Z,97262.91
2018-03-26T06:02:37.337Z,97259.69
2018-03-26T06:05:03.572Z,97259.84
2018-03-26T06:07:29.805Z,97249.55
2018-03-26T06:09:56.084Z,97257.87
2018-03-26T06:12:22.340Z,97261.69
2018-03-26T06:14:48.588Z,97263.82
2018-03-26T06:17:15.941Z,97250.98
2018-03-26T06:19:42.216Z,97267.34
2018-03-26T06:22:08.561Z,97267.23
2018-03-26T06:24:34.894Z,97267.69
2018-03-26T06:27:01.192Z,97274.74
2018-03-26T06:29:27.497Z,97275.56
2018-03-26T06:31:53.820Z,97283.81
2018-03-26T06:34:20.097Z,97284.04
2018-03-26T06:39:44.932Z,97286.58
2018-03-26T06:42:11.209Z,97284.33
2018-03-26T06:44:37.474Z,97285.78
2018-03-26T06:47:03.758Z,97293.06
2018-03-26T06:49:30.063Z,97294.95
2018-03-26T06:51:56.308Z,97298.66
2018-03-26T06:54:22.537Z,97300.48
2018-03-26T06:56:48.844Z,97307.75
2018-03-26T06:59:15.108Z,97302.09
2018-03-26T07:01:41.344Z,97307.72
2018-03-26T07:04:07.625Z,97302.28
2018-03-26T07:06:33.852Z,97310.84
2018-03-26T07:09:00.093Z,97307.59
2018-03-26T07:11:26.377Z,97307.84
2018-03-26T07:13:52.649Z,97309.13
2018-03-26T07:16:18.933Z,97310.22
2018-03-26T07:18:45.213Z,97311.19
2018-03-26T07:21:11.460Z,97317.37
2018-03-26T07:23:37.718Z,97335.98
2018-03-26T07:26:04.017Z,97326.02
2018-03-26T07:28:30.285Z,97330.03
2018-03-26T07:30:56.540Z,97332.73
2018-03-26T07:33:22.817Z,97329.27
2018-03-26T07:35:49.074Z,97325.59
2018-03-26T07:38:15.329Z,97325.64
2018-03-26T07:40:41.606Z,97325.97
2018-03-26T07:43:07.841Z,97335.45
2018-03-26T07:45:34.081Z,97340.30
2018-03-26T07:48:00.393Z,97332.30
2018-03-26T07:50:26.633Z,97332.94
2018-03-26T07:52:52.861Z,97336.97
2018-03-26T07:55:19.184Z,97331.73
2018-03-26T07:57:45.417Z,97344.45
2018-03-26T08:00:11.724Z,97342.09
2018-03-26T08:02:38.000Z,97340.59
2018-03-26T08:05:04.281Z,97347.62
2018-03-26T08:07:30.536Z,97350.15
2018-03-26T08:09:56.808Z,97358.20
2018-03-26T08:12:23.045Z,97353.39
2018-03-26T08:14:49.291Z,97357.50
2018-03-26T08:17:15.581Z,97364.63
2018-03-26T08:19:41.809Z,97365.14
2018-03-26T08:22:08.093Z,97365.83
2018-03-26T08:24:34.424Z,97369.94
2018-03-26T08:27:00.673Z,97369.03
2018-03-26T08:29:26.940Z,97368.86
2018-03-26T08:31:53.295Z,97367.72
2018-03-26T08:34:19.525Z,97373.05
2018-03-26T08:36:45.788Z,97364.81
2018-03-26T08:39:12.069Z,97363.18
2018-03-26T08:41:38.314Z,97364.42
2018-03-26T08:44:04.564Z,97366.64
2018-03-26T08:46:30.860Z,97364.98
2018-03-26T08:48:57.135Z,97369.45
2018-03-26T08:51:23.401Z,97371.88
2018-03-26T08:53:49.697Z,97373.47
2018-03-26T08:56:15.994Z,97372.27
2018-03-26T08:58:42.232Z,97382.73
2018-03-26T09:01:08.577Z,97373.63
2018-03-26T09:03:34.865Z,97380.09
2018-03-26T09:06:01.114Z,97375.45
2018-03-26T09:08:27.380Z,97378.18
2018-03-26T09:10:53.641Z,97379.42
2018-03-26T09:13:26.990Z,97375.06
2018-03-26T09:15:53.245Z,97377.96
2018-03-26T09:18:19.502Z,97382.70
2018-03-26T09:20:45.832Z,97384.32
2018-03-26T09:23:12.116Z,97377.24
2018-03-26T09:25:38.382Z,97382.03
2018-03-26T09:28:04.684Z,97380.19
2018-03-26T09:30:30.930Z,97375.80
2018-03-26T09:32:57.182Z,97378.37
2018-03-26T09:35:23.579Z,97377.09
2018-03-26T09:37:49.865Z,97378.69
2018-03-26T09:40:16.148Z,97378.86
2018-03-26T09:42:42.488Z,97389.97
2018-03-26T09:45:08.762Z,97389.25
2018-03-26T09:47:35.036Z,97392.30
2018-03-26T09:50:01.364Z,97395.42
2018-03-26T09:52:27.634Z,97390.78
2018-03-26T09:54:53.939Z,97401.47
2018-03-26T09:57:20.256Z,97406.16
2018-03-26T09:59:46.562Z,97400.35
2018-03-26T10:02:12.854Z,97407.42
2018-03-26T10:04:39.138Z,97407.00
2018-03-26T10:07:05.411Z,97401.47
2018-03-26T10:09:31.684Z,97411.55
2018-03-26T10:11:57.964Z,97405.50
2018-03-26T10:14:24.210Z,97407.19
2018-03-26T10:16:50.474Z,97405.99
2018-03-26T10:19:16.768Z,97412.16
2018-03-26T10:21:43.009Z,97411.07
2018-03-26T10:24:09.268Z,97415.91
2018-03-26T10:26:35.572Z,97412.36
2018-03-26T10:29:01.841Z,97411.47
2018-03-26T10:31:28.084Z,97413.38
2018-03-26T10:33:54.445Z,97419.45
2018-03-26T10:36:20.688Z,97418.42
2018-03-26T10:38:46.933Z,97416.17
2018-03-26T10:41:13.241Z,97424.87
2018-03-26T10:43:39.513Z,97425.16
2018-03-26T10:46:05.816Z,97431.03
2018-03-26T10:48:32.089Z,97428.67
2018-03-26T10:50:58.356Z,97431.09
2018-03-26T10:53:24.620Z,97426.91
2018-03-26T10:55:50.904Z,97423.31
2018-03-26T10:58:17.161Z,97425.30
2018-03-26T11:00:43.416Z,97434.52
2018-03-26T11:03:09.716Z,97432.99
2018-03-26T11:05:35.995Z,97428.55
2018-03-26T11:08:02.252Z,97435.62
2018-03-26T11:10:28.558Z,97432.37
2018-03-26T11:12:54.833Z,97434.47
2018-03-26T11:15:21.117Z,97436.50
2018-03-26T11:17:47.401Z,97441.47
2018-03-26T11:20:13.661Z,97443.20
2018-03-26T11:22:39.960Z,97436.04
2018-03-26T11:25:06.273Z,97440.95
2018-03-26T11:27:32.517Z,97439.95
2018-03-26T11:29:58.812Z,97441.09
2018-03-26T11:32:25.083Z,97444.66
2018-03-26T11:34:51.340Z,97437.52
2018-03-26T11:37:17.589Z,97449.50
2018-03-26T11:39:44.006Z,97452.56
2018-03-26T11:42:10.260Z,97455.57
2018-03-26T11:44:36.508Z,97456.11
2018-03-26T11:47:02.800Z,97458.55
2018-03-26T11:49:29.116Z,97460.63
2018-03-26T11:51:55.333Z,97457.77
2018-03-26T11:54:21.608Z,97463.48
2018-03-26T11:56:47.853Z,97456.00
2018-03-26T11:59:14.153Z,97462.30
2018-03-26T12:01:40.444Z,97460.30
2018-03-26T12:04:06.716Z,97475.08
2018-03-26T12:06:32.957Z,97467.89
2018-03-26T12:08:59.242Z,97472.35
2018-03-26T12:11:25.493Z,97472.84
2018-03-26T12:13:51.741Z,97472.02
2018-03-26T12:16:18.019Z,97470.87
2018-03-26T12:18:44.279Z,97466.27
2018-03-26T12:21:10.568Z,97468.44
2018-03-26T12:23:48.909Z,97470.61
2018-03-26T12:26:15.181Z,97470.36
2018-03-26T12:28:53.580Z,97469.70
2018-03-26T12:31:19.825Z,97477.89
2018-03-26T12:33:58.287Z,97473.64
2018-03-26T12:36:24.634Z,97480.23
2018-03-26T12:38:50.906Z,97476.69
2018-03-26T12:41:17.181Z,97478.09
2018-03-26T12:43:43.455Z,97476.34
2018-03-26T12:46:21.932Z,97471.17
2018-03-26T12:48:48.186Z,97472.53
2018-03-26T12:51:26.681Z,97470.50
2018-03-26T12:53:52.941Z,97474.47
2018-03-26T12:56:19.190Z,97469.64
2018-03-26T12:58:48.578Z,97472.52
2018-03-26T13:01:27.089Z,97470.81
2018-03-26T13:03:53.383Z,97474.14
2018-03-26T13:06:19.657Z,97475.72
2018-03-26T13:08:45.938Z,97475.58
2018-03-26T13:11:12.269Z,97476.91
2018-03-26T13:13:38.507Z,97482.70
2018-03-26T13:16:04.809Z,97486.45
2018-03-26T13:18:31.094Z,97484.47
2018-03-26T13:20:57.357Z,97489.51
2018-03-26T13:23:23.637Z,97493.56
2018-03-26T13:25:49.926Z,97499.36
2018-03-26T13:28:16.254Z,97493.68
2018-03-26T13:30:42.504Z,97495.67
2018-03-26T13:33:08.778Z,97493.07
2018-03-26T13:35:35.050Z,97498.30
2018-03-26T13:38:01.301Z,97499.59
2018-03-26T13:40:27.564Z,97504.97
2018-03-26T13:42:53.829Z,97505.47
2018-03-26T13:45:20.066Z,97509.80
2018-03-26T13:47:46.333Z,97512.00
2018-03-26T13:50:12.585Z,97508.45
2018-03-26T13:52:38.860Z,97516.23
2018-03-26T13:55:05.164Z,97515.52
2018-03-26T13:57:31.441Z,97511.82
2018-03-26T13:59:57.694Z,97517.12
2018-03-26T14:02:23.974Z,97518.69
2018-03-26T14:04:50.227Z,97523.11
2018-03-26T14:07:16.465Z,97519.61
2018-03-26T14:09:54.972Z,97522.83
2018-03-26T14:12:33.460Z,97530.55
2018-03-26T14:15:11.946Z,97523.34
2018-03-26T14:17:49.237Z,97526.92
2018-03-26T14:20:15.552Z,97529.89
2018-03-26T14:22:41.820Z,97525.21
2018-03-26T14:25:08.148Z,97522.14
2018-03-26T14:27:34.440Z,97525.59
2018-03-26T14:30:00.689Z,97522.52
2018-03-26T14:32:27.027Z,97524.16
2018-03-26T14:35:05.701Z,97524.62
2018-03-26T14:37:31.905Z,97523.16
2018-03-26T14:39:58.157Z,97527.55
2018-03-26T14:42:24.470Z,97521.57
2018-03-26T14:44:50.738Z,97520.30
2018-03-26T14:47:17.012Z,97526.86
2018-03-26T14:49:43.290Z,97524.41
2018-03-26T14:52:09.553Z,97521.73
2018-03-26T14:54:36.678Z,97522.19
2018-03-26T14:57:02.973Z,97518.13
2018-03-26T14:59:29.243Z,97521.28
2018-03-26T15:01:55.492Z,97517.41
2018-03-26T15:04:21.828Z,97524.31
2018-03-26T15:06:48.105Z,97525.26
2018-03-26T15:09:14.362Z,97522.88
2018-03-26T15:11:40.633Z,97522.97
2018-03-26T15:14:06.872Z,97520.97
2018-03-26T15:16:33.107Z,97531.78
2018-03-26T15:18:59.428Z,97531.33
2018-03-26T15:21:25.664Z,97530.94
2018-03-26T15:23:52.228Z,97532.41
2018-03-26T15:26:18.585Z,97531.55
2018-03-26T15:28:44.964Z,97532.06
2018-03-26T15:31:11.218Z,97537.03
2018-03-26T15:33:37.543Z,97531.05
2018-03-26T15:36:03.828Z,97531.35
2018-03-26T15:38:30.065Z,97539.06
2018-03-26T15:40:56.573Z,97533.44
2018-03-26T15:43:22.817Z,97532.83
2018-03-26T15:45:49.049Z,97531.68
2018-03-26T15:48:15.333Z,97538.48
2018-03-26T15:50:41.637Z,97530.48
2018-03-26T15:53:07.834Z,97536.93
2018-03-26T15:55:34.116Z,97536.30
2018-03-26T15:58:00.519Z,97538.80
2018-03-26T16:00:26.773Z,97535.84
2018-03-26T16:02:59.153Z,97531.85
2018-03-26T16:05:25.500Z,97536.15
2018-03-26T16:07:51.743Z,97541.77
2018-03-26T16:10:18.017Z,97539.98
2018-03-26T16:12:44.270Z,97536.27
2018-03-26T16:15:10.570Z,97532.31
2018-03-26T16:17:36.842Z,97537.15
2018-03-26T16:20:03.125Z,97539.19
2018-03-26T16:22:29.366Z,97536.80
2018-03-26T16:24:55.638Z,97541.59
2018-03-26T16:27:21.878Z,97546.61
2018-03-26T16:29:48.123Z,97543.56
2018-03-26T16:32:14.413Z,97542.66
2018-03-26T16:34:40.668Z,97545.20
2018-03-26T16:37:06.912Z,97545.98
2018-03-26T16:39:33.213Z,97543.38
2018-03-26T16:42:11.474Z,97552.38
2018-03-26T16:44:37.804Z,97550.02
2018-03-26T16:47:04.045Z,97547.20
2018-03-26T16:49:30.371Z,97557.06
2018-03-26T16:51:56.650Z,97562.42
2018-03-26T16:54:22.909Z,97565.47
2018-03-26T16:56:49.169Z,97563.45
2018-03-26T16:59:15.424Z,97564.03
2018-03-26T17:01:41.677Z,97567.02
2018-03-26T17:04:07.969Z,97569.31
2018-03-26T17:06:34.332Z,97571.83
2018-03-26T17:09:00.568Z,97568.02
2018-03-26T17:11:26.801Z,97579.19
2018-03-26T17:13:53.064Z,97576.66
2018-03-26T17:16:19.317Z,97581.78
2018-03-26T17:18:45.566Z,97582.39
2018-03-26T17:21:12.242Z,97577.66
2018-03-26T17:23:38.906Z,97580.34
2018-03-26T17:26:05.177Z,97580.33
2018-03-26T17:28:31.565Z,97580.69
2018-03-26T17:30:57.883Z,97580.03
2018-03-26T17:33:24.273Z,97591.67
2018-03-26T17:35:50.577Z,97587.25
2018-03-26T17:38:16.845Z,97582.52
2018-03-26T17:40:43.109Z,97586.42
2018-03-26T17:43:09.484Z,97587.42
2018-03-26T17:45:35.817Z,97585.34
2018-03-26T17:48:02.155Z,97587.98
2018-03-26T17:50:28.444Z,97590.02
2018-03-26T17:52:54.789Z,97592.23
2018-03-26T17:57:55.827Z,97601.52
2018-03-26T18:00:22.177Z,97602.00
2018-03-26T18:02:48.552Z,97598.88
2018-03-26T18:05:14.997Z,97611.88
2018-03-26T18:07:41.236Z,97608.77
2018-03-26T18:10:07.666Z,97615.51
2018-03-26T18:12:33.871Z,97615.25
2018-03-26T18:15:00.338Z,97623.69
2018-03-26T18:17:26.595Z,97623.40
2018-03-26T18:19:53.194Z,97632.27
2018-03-26T18:22:19.448Z,97634.39
2018-03-26T18:24:45.719Z,97627.34
2018-03-26T18:27:11.984Z,97628.82
2018-03-26T18:29:38.350Z,97627.12
2018-03-26T18:32:04.630Z,97630.27
2018-03-26T18:34:31.035Z,97628.72
2018-03-26T18:36:57.265Z,97624.91
2018-03-26T18:39:23.594Z,97631.41
2018-03-26T18:41:49.905Z,97628.05
2018-03-26T18:44:16.348Z,97631.95
2018-03-26T18:46:42.629Z,97628.75
2018-03-26T18:49:08.969Z,97632.73
2018-03-26T18:51:35.472Z,97633.50
2018-03-26T18:54:01.802Z,97631.05
2018-03-26T18:56:28.062Z,97629.45
2018-03-26T18:58:54.316Z,97632.98
2018-03-26T19:01:20.553Z,97634.20
2018-03-26T19:03:47.100Z,97629.20
2018-03-26T19:06:13.417Z,97630.35
2018-03-26T19:08:39.745Z,97635.48
2018-03-26T19:11:06.009Z,97634.20
2018-03-26T19:13:32.274Z,97632.66
2018-03-26T19:15:58.596Z,97640.30
2018-03-26T19:18:24.913Z,97641.92
2018-03-26T19:20:51.300Z,97644.36
2018-03-26T19:23:17.532Z,97641.48
2018-03-26T19:25:43.928Z,97642.22
2018-03-26T19:28:10.185Z,97650.48
2018-03-26T19:30:36.498Z,97643.85
2018-03-26T19:33:02.760Z,97644.45
2018-03-26T19:35:29.049Z,97636.41
2018-03-26T19:37:55.298Z,97638.02
2018-03-26T19:40:21.605Z,97646.58
2018-03-26T19:42:47.895Z,97638.53
2018-03-26T19:45:14.276Z,97646.90
2018-03-26T19:47:40.758Z,97641.87
2018-03-26T19:50:07.069Z,97638.25
2018-03-26T19:52:33.359Z,97639.52
2018-03-26T19:54:59.621Z,97637.95
2018-03-26T19:57:25.807Z,97640.27
2018-03-26T19:59:52.134Z,97633.98
2018-03-26T20:02:18.404Z,97630.95
2018-03-26T20:04:44.747Z,97642.86
2018-03-26T20:07:10.993Z,97638.87
2018-03-26T20:09:37.304Z,97645.72
2018-03-26T20:12:04.812Z,97648.28
2018-03-26T20:14:31.049Z,97645.93
2018-03-26T20:16:57.395Z,97649.83
2018-03-26T20:19:23.631Z,97655.09
2018-03-26T20:21:49.961Z,97655.89
2018-03-26T20:24:16.265Z,97652.41
2018-03-26T20:26:42.516Z,97659.98
2018-03-26T20:29:08.864Z,97652.41
2018-03-26T20:31:35.149Z,97652.83
2018-03-26T20:34:01.425Z,97655.44
2018-03-26T20:36:27.680Z,97644.53
2018-03-26T20:38:54.124Z,97651.78
2018-03-26T20:41:20.502Z,97649.20
2018-03-26T20:43:46.757Z,97650.28
2018-03-26T20:46:13.088Z,97644.60
2018-03-26T20:48:39.455Z,97648.91
2018-03-26T20:51:05.792Z,97644.44
2018-03-26T20:53:32.288Z,97641.49
2018-03-26T20:55:58.662Z,97641.66
2018-03-26T20:58:25.083Z,97642.86
2018-03-26T21:00:51.453Z,97647.22
2018-03-26T21:03:17.881Z,97644.86
2018-03-26T21:05:44.110Z,97644.73
2018-03-26T21:08:10.458Z,97642.15
2018-03-26T21:10:37.736Z,97638.35
2018-03-26T21:13:04.028Z,97632.51
2018-03-26T21:15:30.696Z,97633.86
2018-03-26T21:17:56.964Z,97637.44
2018-03-26T21:20:23.204Z,97635.05
2018-03-26T21:22:49.480Z,97637.23
2018-03-26T21:25:15.720Z,97633.77
2018-03-26T21:27:42.214Z,97641.33
2018-03-26T21:30:08.530Z,97645.45
2018-03-26T21:32:34.912Z,97643.05
2018-03-26T21:35:01.243Z,97644.45
2018-03-26T21:37:27.791Z,97646.19
2018-03-26T21:39:54.117Z,97639.03
2018-03-26T21:42:20.375Z,97640.20
2018-03-26T21:44:46.798Z,97639.16
2018-03-26T21:47:13.447Z,97642.23
2018-03-26T21:49:39.846Z,97641.95
2018-03-26T21:52:06.183Z,97642.86
2018-03-26T21:54:32.529Z,97640.21
2018-03-26T21:56:58.816Z,97644.72
2018-03-26T21:59:25.359Z,97646.06
2018-03-26T22:01:51.661Z,97639.41
2018-03-26T22:04:18.220Z,97642.77
2018-03-26T22:06:44.523Z,97645.69
2018-03-26T22:09:10.833Z,97642.02
2018-03-26T22:11:37.134Z,97641.03
2018-03-26T22:14:03.485Z,97646.53
2018-03-26T22:16:29.854Z,97639.27
2018-03-26T22:18:56.229Z,97643.42
2018-03-26T22:21:22.758Z,97638.47
2018-03-26T22:23:49.049Z,97639.78
2018-03-26T22:26:15.332Z,97634.07
2018-03-26T22:28:41.645Z,97644.36
2018-03-26T22:31:09.181Z,97641.38
2018-03-26T22:33:35.469Z,97643.33
2018-03-26T22:36:01.851Z,97646.52
2018-03-26T22:38:28.332Z,97647.59
2018-03-26T22:40:54.625Z,97641.49
2018-03-26T22:43:20.919Z,97636.94
2018-03-26T22:45:47.287Z,97636.66
2018-03-26T22:48:13.621Z,97637.97
2018-03-26T22:50:39.901Z,97642.23
2018-03-26T22:53:06.379Z,97651.09
2018-03-26T22:55:32.636Z,97641.42
2018-03-26T22:57:59.135Z,97642.41
2018-03-26T23:00:25.424Z,97648.79
2018-03-26T23:02:51.857Z,97647.53
2018-03-26T23:05:18.215Z,97650.20
2018-03-26T23:07:44.585Z,97648.30
2018-03-26T23:10:10.841Z,97653.00
2018-03-26T23:12:37.173Z,97659.02
2018-03-26T23:15:03.902Z,97663.64
2018-03-26T23:17:30.193Z,97657.81
2018-03-26T23:19:56.706Z,97659.92
2018-03-26T23:22:35.052Z,97659.13
2018-03-26T23:25:01.627Z,97659.46
2018-03-26T23:27:27.976Z,97669.39
2018-03-26T23:29:54.266Z,97665.67
2018-03-26T23:32:20.757Z,97664.96
2018-03-26T23:34:47.058Z,97664.02
2018-03-26T23:37:13.558Z,97659.52
2018-03-26T23:39:39.821Z,97666.09
2018-03-26T23:42:06.389Z,97658.17
2018-03-26T23:44:32.775Z,97662.73
2018-03-26T23:46:59.096Z,97661.91
2018-03-26T23:49:25.482Z,97669.86
2018-03-26T23:51:51.918Z,97667.36
2018-03-26T23:54:18.205Z,97666.37
2018-03-26T23:56:44.785Z,97668.29
2018-03-26T23:59:11.043Z,97673.92
